Time,TemperatureF,DewpointF,PressureIn,WindDirection,WindDirectionDegrees,WindSpeedMPH,WindSpeedGustMPH,Humidity,HourlyPrecipIn,Conditions,Clouds,dailyrainin,SoftwareType,DateUTC
2013-03-30 00:03:00,30.4,26.7,29.80,ENE,68,0.0,0.5,86,0.00,CLR,,0.00,WeatherDisplay:10.37,2013-03-29 23:03:00,
2013-03-30 00:08:00,30.4,27.0,29.79,NE,45,0.5,0.5,87,0.00,CLR,,0.00,WeatherDisplay:10.37,2013-03-29 23:08:00,
2013-03-30 00:13:00,30.4,27.0,29.79,ENE,68,1.1,0.0,87,0.00,CLR,,0.00,WeatherDisplay:10.37,2013-03-29 23:13:00,
2013-03-30 00:18:00,30.4,27.3,29.79,ENE,68,1.6,1.6,88,0.00,CLR,,0.00,WeatherDisplay:10.37,2013-03-29 23:18:00,
2013-03-30 00:23:00,30.4,27.3,29.79,NE,45,1.1,1.1,88,0.00,CLR,,0.00,WeatherDisplay:10.37,2013-03-29 23:23:00,
2013-03-30 00:28:00,30.2,27.1,29.79,NE,45,1.1,0.0,88,0.00,CLR,,0.00,WeatherDisplay:10.37,2013-03-29 23:28:00,
2013-03-30 00:33:00,30.2,26.8,29.79,NE,45,0.0,0.0,87,0.00,CLR,,0.00,WeatherDisplay:10.37,2013-03-29 23:33:00,
2013-03-30 00:38:00,29.8,26.4,29.79,NE,45,0.0,0.0,87,0.00,CLR,,0.00,WeatherDisplay:10.37,2013-03-29 23:38:00,
2013-03-30 00:43:00,29.7,26.3,29.79,NE,45,0.0,0.0,87,0.00,CLR,,0.00,WeatherDisplay:10.37,2013-03-29 23:43:00,
2013-03-30 00:48:00,29.3,25.9,29.79,NE,45,0.0,0.0,87,0.00,CLR,,0.00,WeatherDisplay:10.37,2013-03-29 23:48:00,
2013-03-30 00:53:00,29.1,25.7,29.79,NE,45,0.0,0.0,87,0.00,CLR,,0.00,WeatherDisplay:10.37,2013-03-29 23:53:00,
2013-03-30 00:58:00,29.1,25.5,29.79,NE,45,0.0,0.0,86,0.00,CLR,,0.00,WeatherDisplay:10.37,2013-03-29 23:58:00,
2013-03-30 01:03:00,28.8,25.1,29.79,NE,45,0.0,0.0,86,0.00,CLR,,0.00,WeatherDisplay:10.37,2013-03-30 00:03:00,
2013-03-30 01:08:00,28.8,25.1,29.79,NE,45,0.0,0.0,86,0.00,CLR,,0.00,WeatherDisplay:10.37,2013-03-30 00:08:00,
2013-03-30 01:13:00,28.4,24.7,29.79,NE,45,0.2,0.2,86,0.00,CLR,,0.00,WeatherDisplay:10.37,2013-03-30 00:13:00,
2013-03-30 01:18:00,28.6,25.2,29.79,NE,45,0.0,0.0,87,0.00,CLR,,0.00,WeatherDisplay:10.37,2013-03-30 00:18:00,
2013-03-30 01:23:00,28.4,25.0,29.79,NE,45,0.0,0.0,87,0.00,CLR,,0.00,WeatherDisplay:10.37,2013-03-30 00:23:00,
2013-03-30 01:28:00,28.4,25.0,29.79,NE,45,0.0,0.0,87,0.00,CLR,,0.00,WeatherDisplay:10.37,2013-03-30 00:28:00,
2013-03-30 01:33:00,28.4,25.0,29.79,NE,45,0.0,0.0,87,0.00,CLR,,0.00,WeatherDisplay:10.37,2013-03-30 00:33:00,
2013-03-30 01:38:00,28.4,25.0,29.78,NE,45,0.0,0.0,87,0.00,CLR,,0.00,WeatherDisplay:10.37,2013-03-30 00:38:00,
2013-03-30 01:43:00,28.4,25.0,29.79,NE,45,0.0,0.0,87,0.00,CLR,,0.00,WeatherDisplay:10.37,2013-03-30 00:43:00,
2013-03-30 01:48:00,28.4,25.0,29.78,North,0,0.7,0.7,87,0.00,CLR,,0.00,WeatherDisplay:10.37,2013-03-30 00:48:00,
2013-03-30 01:53:00,28.6,25.5,29.78,East,90,1.1,1.1,88,0.00,CLR,,0.00,WeatherDisplay:10.37,2013-03-30 00:53:00,
2013-03-30 01:58:00,28.9,25.8,29.78,East,90,1.1,1.1,88,0.00,CLR,,0.00,WeatherDisplay:10.37,2013-03-30 00:58:00,
2013-03-30 02:03:00,29.1,26.3,29.78,NE,45,2.3,2.3,89,0.00,CLR,,0.00,WeatherDisplay:10.37,2013-03-30 01:03:00,
2013-03-30 02:08:00,29.3,26.5,29.78,NE,45,2.3,2.3,89,0.00,CLR,,0.00,WeatherDisplay:10.37,2013-03-30 01:08:00,
2013-03-30 02:13:00,29.5,26.9,29.78,ENE,68,2.3,2.3,90,0.00,CLR,,0.00,WeatherDisplay:10.37,2013-03-30 01:13:00,
2013-03-30 02:18:00,29.5,26.9,29.78,ENE,68,1.1,1.1,90,0.00,CLR,,0.00,WeatherDisplay:10.37,2013-03-30 01:18:00,
2013-03-30 02:23:00,29.3,26.7,29.78,NNE,22,0.0,1.1,90,0.00,CLR,,0.00,WeatherDisplay:10.37,2013-03-30 01:23:00,
2013-03-30 02:28:00,29.3,26.7,29.78,North,0,1.1,1.1,90,0.00,CLR,,0.00,WeatherDisplay:10.37,2013-03-30 01:28:00,
2013-03-30 02:33:00,29.1,26.6,29.78,North,0,0.0,0.0,90,0.00,CLR,,0.00,WeatherDisplay:10.37,2013-03-30 01:33:00,
2013-03-30 02:38:00,29.1,26.6,29.78,NNE,22,0.0,0.7,90,0.00,CLR,,0.00,WeatherDisplay:10.37,2013-03-30 01:38:00,
2013-03-30 02:43:00,29.1,26.6,29.77,NNE,22,1.1,0.0,90,0.00,CLR,,0.00,WeatherDisplay:10.37,2013-03-30 01:43:00,
2013-03-30 02:48:00,29.3,26.7,29.77,ENE,68,2.3,2.3,90,0.00,CLR,,0.00,WeatherDisplay:10.37,2013-03-30 01:48:00,
2013-03-30 02:53:00,29.5,26.9,29.78,ENE,68,2.6,2.6,90,0.00,CLR,,0.00,WeatherDisplay:10.37,2013-03-30 01:53:00,
2013-03-30 02:58:00,29.8,27.5,29.77,NE,45,2.3,0.0,91,0.00,CLR,,0.00,WeatherDisplay:10.37,2013-03-30 01:58:00,
2013-03-30 03:03:00,29.8,27.5,29.77,East,90,1.1,0.0,91,0.00,CLR,,0.00,WeatherDisplay:10.37,2013-03-30 02:03:00,
2013-03-30 03:08:00,30.0,27.7,29.77,NNE,22,1.1,1.1,91,0.00,CLR,,0.00,WeatherDisplay:10.37,2013-03-30 02:08:00,
2013-03-30 03:13:00,30.2,27.9,29.77,ENE,68,2.3,2.3,91,0.00,CLR,,0.00,WeatherDisplay:10.37,2013-03-30 02:13:00,
2013-03-30 03:18:00,30.2,27.9,29.77,NE,45,2.3,2.3,91,0.00,CLR,,0.00,WeatherDisplay:10.37,2013-03-30 02:18:00,
2013-03-30 03:23:00,30.2,27.9,29.77,NE,45,2.3,2.3,91,0.00,CLR,,0.00,WeatherDisplay:10.37,2013-03-30 02:23:00,
2013-03-30 03:28:00,30.4,28.1,29.77,NE,45,1.1,1.1,91,0.00,CLR,,0.00,WeatherDisplay:10.37,2013-03-30 02:28:00,
2013-03-30 03:33:00,30.4,28.1,29.77,ENE,68,2.3,2.3,91,0.00,CLR,,0.00,WeatherDisplay:10.37,2013-03-30 02:33:00,
2013-03-30 03:38:00,30.4,28.1,29.77,NE,45,2.3,2.3,91,0.00,CLR,,0.00,WeatherDisplay:10.37,2013-03-30 02:38:00,
2013-03-30 03:43:00,30.4,28.1,29.77,NNE,22,1.1,1.1,91,0.00,CLR,,0.00,WeatherDisplay:10.37,2013-03-30 02:43:00,
2013-03-30 03:48:00,30.2,27.9,29.77,NNE,22,1.4,1.4,91,0.00,CLR,,0.00,WeatherDisplay:10.37,2013-03-30 02:48:00,
2013-03-30 03:53:00,30.2,27.9,29.77,NE,45,1.4,1.4,91,0.00,CLR,,0.00,WeatherDisplay:10.37,2013-03-30 02:53:00,
2013-03-30 03:58:00,30.0,27.7,29.78,NNE,22,2.4,2.4,91,0.00,CLR,,0.00,WeatherDisplay:10.37,2013-03-30 02:58:00,
2013-03-30 04:03:00,30.0,27.7,29.78,NNE,22,3.5,3.5,91,0.00,CLR,,0.00,WeatherDisplay:10.37,2013-03-30 03:03:00,
2013-03-30 04:08:00,30.0,27.7,29.77,NNE,22,2.3,2.3,91,0.00,CLR,,0.00,WeatherDisplay:10.37,2013-03-30 03:08:00,
2013-03-30 04:13:00,29.8,27.5,29.78,NNE,22,2.3,2.3,91,0.00,CLR,,0.00,WeatherDisplay:10.37,2013-03-30 03:13:00,
2013-03-30 04:18:00,29.8,27.5,29.78,ENE,68,2.3,2.3,91,0.00,CLR,,0.00,WeatherDisplay:10.37,2013-03-30 03:18:00,
2013-03-30 04:23:00,29.7,27.4,29.78,NE,45,2.3,2.3,91,0.00,CLR,,0.00,WeatherDisplay:10.37,2013-03-30 03:23:00,
2013-03-30 04:28:00,29.7,27.4,29.78,NE,45,2.3,2.3,91,0.00,CLR,,0.00,WeatherDisplay:10.37,2013-03-30 03:28:00,
2013-03-30 04:33:00,29.5,27.2,29.78,ENE,68,0.0,0.0,91,0.00,CLR,,0.00,WeatherDisplay:10.37,2013-03-30 03:33:00,
2013-03-30 04:38:00,29.3,27.0,29.78,ENE,68,0.5,0.5,91,0.00,CLR,,0.00,WeatherDisplay:10.37,2013-03-30 03:38:00,
2013-03-30 04:43:00,29.1,26.8,29.78,NE,45,1.1,0.0,91,0.00,CLR,,0.00,WeatherDisplay:10.37,2013-03-30 03:43:00,
2013-03-30 04:48:00,29.1,26.8,29.78,NE,45,1.1,1.1,91,0.00,CLR,,0.00,WeatherDisplay:10.37,2013-03-30 03:48:00,
2013-03-30 04:53:00,29.3,27.0,29.78,ENE,68,1.1,1.1,91,0.00,CLR,,0.00,WeatherDisplay:10.37,2013-03-30 03:53:00,
2013-03-30 04:58:00,29.3,27.0,29.78,NNE,22,1.1,1.1,91,0.00,CLR,,0.00,WeatherDisplay:10.37,2013-03-30 03:58:00,
2013-03-30 05:00:00,29.3,27.0,29.78,NE,45,1.1,1.1,91,0.00,CLR,,0.00,WeatherDisplay:10.37,2013-03-30 04:00:00,
2013-03-30 05:05:00,29.5,27.2,29.78,NNE,22,1.8,1.8,91,0.00,CLR,,0.00,WeatherDisplay:10.37,2013-03-30 04:05:00,
2013-03-30 05:10:00,29.5,27.2,29.78,NE,45,2.3,2.3,91,0.00,CLR,,0.00,WeatherDisplay:10.37,2013-03-30 04:10:00,
2013-03-30 05:15:00,29.5,27.2,29.78,NNE,22,2.3,2.3,91,0.00,CLR,,0.00,WeatherDisplay:10.37,2013-03-30 04:15:00,
2013-03-30 05:20:00,29.3,27.0,29.78,NE,45,1.1,1.1,91,0.00,CLR,,0.00,WeatherDisplay:10.37,2013-03-30 04:20:00,
2013-03-30 05:25:00,29.3,27.0,29.79,NNE,22,1.1,1.1,91,0.00,CLR,,0.00,WeatherDisplay:10.37,2013-03-30 04:25:00,
2013-03-30 05:30:00,29.3,27.0,29.79,NNE,22,2.3,0.0,91,0.00,CLR,,0.00,WeatherDisplay:10.37,2013-03-30 04:30:00,
2013-03-30 05:35:00,29.3,26.7,29.79,NNE,22,0.5,0.0,90,0.00,CLR,,0.00,WeatherDisplay:10.37,2013-03-30 04:35:00,
2013-03-30 05:40:00,29.3,26.7,29.79,NNE,22,1.1,1.1,90,0.00,CLR,,0.00,WeatherDisplay:10.37,2013-03-30 04:40:00,
2013-03-30 05:45:00,29.3,26.7,29.79,NNE,22,1.1,1.1,90,0.00,CLR,,0.00,WeatherDisplay:10.37,2013-03-30 04:45:00,
2013-03-30 05:50:00,29.5,26.9,29.79,NNE,22,1.1,1.1,90,0.00,CLR,,0.00,WeatherDisplay:10.37,2013-03-30 04:50:00,
2013-03-30 05:55:00,29.5,26.9,29.79,NNE,22,1.1,1.1,90,0.00,CLR,,0.00,WeatherDisplay:10.37,2013-03-30 04:55:00,
2013-03-30 06:00:00,29.7,27.1,29.79,NNE,22,2.3,2.3,90,0.00,CLR,,0.00,WeatherDisplay:10.37,2013-03-30 05:00:00,
2013-03-30 06:05:00,29.7,27.1,29.79,North,0,2.3,2.3,90,0.00,CLR,,0.00,WeatherDisplay:10.37,2013-03-30 05:05:00,
2013-03-30 06:10:00,29.8,27.3,29.79,NNE,22,2.3,2.3,90,0.00,CLR,,0.00,WeatherDisplay:10.37,2013-03-30 05:10:00,
2013-03-30 06:15:00,29.8,27.3,29.79,NNE,22,2.4,2.4,90,0.00,CLR,,0.00,WeatherDisplay:10.37,2013-03-30 05:15:00,
2013-03-30 06:20:00,29.8,27.3,29.79,NNE,22,2.3,2.3,90,0.00,CLR,,0.00,WeatherDisplay:10.37,2013-03-30 05:20:00,
2013-03-30 06:25:00,30.0,27.4,29.79,NNE,22,1.1,1.1,90,0.00,CLR,,0.00,WeatherDisplay:10.37,2013-03-30 05:25:00,
2013-03-30 06:30:00,30.0,27.2,29.80,NNE,22,1.1,1.1,89,0.00,CLR,,0.00,WeatherDisplay:10.37,2013-03-30 05:30:00,
2013-03-30 06:35:00,30.2,27.3,29.80,NE,45,1.1,1.1,89,0.00,CLR,,0.00,WeatherDisplay:10.37,2013-03-30 05:35:00,
2013-03-30 06:40:00,30.2,27.3,29.79,NNE,22,1.1,1.1,89,0.00,CLR,,0.00,WeatherDisplay:10.37,2013-03-30 05:40:00,
2013-03-30 06:45:00,30.4,27.5,29.80,NNE,22,1.1,0.0,89,0.00,CLR,,0.00,WeatherDisplay:10.37,2013-03-30 05:45:00,
2013-03-30 06:50:00,30.6,27.7,29.80,NNE,22,0.0,0.0,89,0.00,CLR,,0.00,WeatherDisplay:10.37,2013-03-30 05:50:00,
2013-03-30 06:55:00,30.6,27.7,29.80,NNE,22,0.0,0.0,89,0.00,CLR,,0.00,WeatherDisplay:10.37,2013-03-30 05:55:00,
2013-03-30 07:00:00,30.6,27.7,29.80,NNE,22,0.0,0.0,89,0.00,CLR,,0.00,WeatherDisplay:10.37,2013-03-30 06:00:00,
2013-03-30 07:05:00,30.6,27.7,29.80,NNE,22,0.0,0.0,89,0.00,CLR,,0.00,WeatherDisplay:10.37,2013-03-30 06:05:00,
2013-03-30 07:10:00,30.7,27.9,29.80,ENE,68,1.1,1.1,89,0.00,CLR,,0.00,WeatherDisplay:10.37,2013-03-30 06:10:00,
2013-03-30 07:15:00,31.1,28.2,29.80,ENE,68,2.3,0.0,89,0.00,CLR,,0.00,WeatherDisplay:10.37,2013-03-30 06:15:00,
2013-03-30 07:20:00,31.1,28.5,29.80,East,90,1.1,0.0,90,0.00,CLR,,0.00,WeatherDisplay:10.37,2013-03-30 06:20:00,
2013-03-30 07:25:00,31.5,28.9,29.80,ENE,68,1.1,0.0,90,0.00,CLR,,0.00,WeatherDisplay:10.37,2013-03-30 06:25:00,
2013-03-30 07:30:00,31.6,29.0,29.80,ENE,68,1.1,1.1,90,0.00,CLR,,0.00,WeatherDisplay:10.37,2013-03-30 06:30:00,
2013-03-30 07:35:00,31.8,28.9,29.80,NE,45,1.6,1.6,89,0.00,CLR,,0.00,WeatherDisplay:10.37,2013-03-30 06:35:00,
2013-03-30 07:40:00,32.0,29.1,29.80,East,90,3.5,3.5,89,0.00,CLR,,0.00,WeatherDisplay:10.37,2013-03-30 06:40:00,
2013-03-30 07:45:00,32.0,29.1,29.80,ENE,68,2.3,2.3,89,0.00,CLR,,0.00,WeatherDisplay:10.37,2013-03-30 06:45:00,
2013-03-30 07:50:00,32.0,29.1,29.80,East,90,1.1,1.1,89,0.00,CLR,,0.00,WeatherDisplay:10.37,2013-03-30 06:50:00,
2013-03-30 07:55:00,32.0,29.1,29.81,East,90,1.1,1.1,89,0.00,CLR,,0.00,WeatherDisplay:10.37,2013-03-30 06:55:00,
2013-03-30 08:00:00,32.0,29.1,29.80,NE,45,2.3,2.3,89,0.00,CLR,,0.00,WeatherDisplay:10.37,2013-03-30 07:00:00,
2013-03-30 08:04:00,32.0,29.1,29.80,NNE,22,1.1,1.1,89,0.00,CLR,,0.00,WeatherDisplay:10.37,2013-03-30 07:04:00,
2013-03-30 08:09:00,32.0,29.1,29.80,North,0,1.6,1.6,89,0.00,CLR,,0.00,WeatherDisplay:10.37,2013-03-30 07:09:00,
2013-03-30 08:14:00,32.0,29.1,29.80,ENE,68,2.3,2.3,89,0.00,CLR,,0.00,WeatherDisplay:10.37,2013-03-30 07:14:00,
2013-03-30 08:19:00,32.2,29.3,29.80,NE,45,2.3,2.3,89,0.00,CLR,,0.00,WeatherDisplay:10.37,2013-03-30 07:19:00,
2013-03-30 08:24:00,32.4,29.5,29.80,NE,45,2.3,2.3,89,0.00,CLR,,0.00,WeatherDisplay:10.37,2013-03-30 07:24:00,
2013-03-30 08:29:00,32.5,29.7,29.80,ENE,68,3.5,3.5,89,0.00,CLR,,0.00,WeatherDisplay:10.37,2013-03-30 07:29:00,
2013-03-30 08:34:00,32.7,29.8,29.80,NNE,22,2.3,2.3,89,0.00,CLR,,0.00,WeatherDisplay:10.37,2013-03-30 07:34:00,
2013-03-30 08:39:00,32.7,29.8,29.81,NNE,22,2.3,2.3,89,0.00,CLR,,0.00,WeatherDisplay:10.37,2013-03-30 07:39:00,
2013-03-30 08:44:00,32.7,29.8,29.80,East,90,2.3,2.3,89,0.00,CLR,,0.00,WeatherDisplay:10.37,2013-03-30 07:44:00,
2013-03-30 08:49:00,33.1,30.2,29.81,NNE,22,2.3,2.3,89,0.00,CLR,,0.00,WeatherDisplay:10.37,2013-03-30 07:49:00,
2013-03-30 08:54:00,33.1,30.2,29.81,NNE,22,2.3,2.3,89,0.00,CLR,,0.00,WeatherDisplay:10.37,2013-03-30 07:54:00,
2013-03-30 08:59:00,33.3,30.4,29.81,North,0,4.6,4.6,89,0.00,CLR,,0.00,WeatherDisplay:10.37,2013-03-30 07:59:00,
2013-03-30 09:04:00,33.4,30.3,29.80,ENE,68,4.6,4.6,88,0.00,CLR,,0.00,WeatherDisplay:10.37,2013-03-30 08:04:00,
2013-03-30 09:09:00,33.4,30.3,29.81,NE,45,3.5,3.5,88,0.00,CLR,,0.00,WeatherDisplay:10.37,2013-03-30 08:09:00,
2013-03-30 09:14:00,34.0,30.5,29.81,ENE,68,4.6,4.6,87,0.00,CLR,,0.00,WeatherDisplay:10.37,2013-03-30 08:14:00,
2013-03-30 09:19:00,34.0,30.5,29.81,NE,45,4.6,4.6,87,0.00,CLR,,0.00,WeatherDisplay:10.37,2013-03-30 08:19:00,
2013-03-30 09:24:00,34.2,30.4,29.81,North,0,4.6,4.6,86,0.00,CLR,,0.00,WeatherDisplay:10.37,2013-03-30 08:24:00,
2013-03-30 09:29:00,34.3,30.3,29.81,NE,45,4.7,4.7,85,0.00,CLR,,0.00,WeatherDisplay:10.37,2013-03-30 08:29:00,
2013-03-30 09:34:00,34.7,30.4,29.81,NNE,22,5.8,5.8,84,0.00,CLR,,0.00,WeatherDisplay:10.37,2013-03-30 08:34:00,
2013-03-30 09:39:00,34.9,30.5,29.81,NNE,22,4.6,4.6,84,0.00,CLR,,0.00,WeatherDisplay:10.37,2013-03-30 08:39:00,
2013-03-30 09:45:00,34.9,30.2,29.81,NNE,22,4.9,4.9,83,0.00,CLR,,0.00,WeatherDisplay:10.37,2013-03-30 08:45:00,
2013-03-30 09:50:00,34.9,30.2,29.81,East,90,5.8,5.8,83,0.00,CLR,,0.00,WeatherDisplay:10.37,2013-03-30 08:50:00,
2013-03-30 09:55:00,35.2,30.6,29.81,ENE,68,3.5,3.5,83,0.00,CLR,,0.00,WeatherDisplay:10.37,2013-03-30 08:55:00,
2013-03-30 10:00:00,35.4,29.9,29.81,NE,45,5.8,5.8,80,0.00,CLR,,0.00,WeatherDisplay:10.37,2013-03-30 09:00:00,
2013-03-30 10:05:00,35.6,30.0,29.81,NE,45,5.8,5.8,80,0.00,CLR,,0.00,WeatherDisplay:10.37,2013-03-30 09:05:00,
2013-03-30 10:10:00,35.6,30.0,29.81,East,90,5.8,5.8,80,0.00,CLR,,0.00,WeatherDisplay:10.37,2013-03-30 09:10:00,
2013-03-30 10:15:00,36.1,30.6,29.81,North,0,5.2,5.2,80,0.00,CLR,,0.00,WeatherDisplay:10.37,2013-03-30 09:15:00,
2013-03-30 10:20:00,36.0,30.1,29.81,NE,45,5.8,5.8,79,0.00,CLR,,0.00,WeatherDisplay:10.37,2013-03-30 09:20:00,
2013-03-30 10:25:00,36.0,30.1,29.81,SE,135,5.8,5.8,79,0.00,CLR,,0.00,WeatherDisplay:10.37,2013-03-30 09:25:00,
2013-03-30 10:30:00,36.9,31.0,29.81,North,0,6.2,6.2,79,0.00,CLR,,0.00,WeatherDisplay:10.37,2013-03-30 09:30:00,
2013-03-30 10:34:00,37.0,30.5,29.81,East,90,5.8,5.8,77,0.00,CLR,,0.00,WeatherDisplay:10.37,2013-03-30 09:34:00,
2013-03-30 10:39:00,37.0,30.5,29.81,NNE,22,4.6,4.6,77,0.00,CLR,,0.00,WeatherDisplay:10.37,2013-03-30 09:39:00,
2013-03-30 10:44:00,37.0,30.8,29.81,NNE,22,4.6,4.6,78,0.00,CLR,,0.00,WeatherDisplay:10.37,2013-03-30 09:44:00,
2013-03-30 10:49:00,37.0,30.5,29.81,ENE,68,4.6,4.6,77,0.00,CLR,,0.00,WeatherDisplay:10.37,2013-03-30 09:49:00,
2013-03-30 10:54:00,37.2,30.3,29.81,NNE,22,4.6,4.6,76,0.00,CLR,,0.00,WeatherDisplay:10.37,2013-03-30 09:54:00,
2013-03-30 10:59:00,37.6,31.0,29.81,NNE,22,5.2,5.2,77,0.00,CLR,,0.00,WeatherDisplay:10.37,2013-03-30 09:59:00,
2013-03-30 11:04:00,37.6,30.0,29.81,North,0,8.1,8.1,74,0.00,CLR,,0.00,WeatherDisplay:10.37,2013-03-30 10:04:00,
2013-03-30 11:09:00,37.4,29.2,29.81,NNE,22,6.9,6.9,72,0.00,CLR,,0.00,WeatherDisplay:10.37,2013-03-30 10:09:00,
2013-03-30 11:14:00,37.8,29.2,29.81,ENE,68,5.8,7.6,71,0.00,CLR,,0.00,WeatherDisplay:10.37,2013-03-30 10:14:00,
2013-03-30 11:19:00,38.7,29.4,29.81,East,90,9.2,9.2,69,0.00,CLR,,0.00,WeatherDisplay:10.37,2013-03-30 10:19:00,
2013-03-30 11:24:00,38.8,28.8,29.81,NNE,22,6.9,6.9,67,0.00,CLR,,0.00,WeatherDisplay:10.37,2013-03-30 10:24:00,
2013-03-30 11:29:00,39.2,29.2,29.80,NE,45,6.9,6.9,67,0.00,CLR,,0.00,WeatherDisplay:10.37,2013-03-30 10:29:00,
2013-03-30 11:34:00,39.2,28.0,29.80,NE,45,6.2,6.2,64,0.00,CLR,,0.00,WeatherDisplay:10.37,2013-03-30 10:34:00,
2013-03-30 11:39:00,39.2,29.5,29.81,NNE,22,5.8,5.8,68,0.00,CLR,,0.00,WeatherDisplay:10.37,2013-03-30 10:39:00,
2013-03-30 11:44:00,38.7,29.0,29.80,North,0,5.8,6.0,68,0.00,CLR,,0.00,WeatherDisplay:10.37,2013-03-30 10:44:00,
2013-03-30 11:49:00,38.3,28.7,29.81,NNE,22,5.9,5.9,68,0.00,CLR,,0.00,WeatherDisplay:10.37,2013-03-30 10:49:00,
2013-03-30 11:54:00,38.1,28.8,29.81,NNE,22,9.2,9.2,69,0.00,CLR,,0.00,WeatherDisplay:10.37,2013-03-30 10:54:00,
2013-03-30 11:59:00,37.9,28.7,29.81,NNE,22,9.2,9.2,69,0.00,CLR,,0.00,WeatherDisplay:10.37,2013-03-30 10:59:00,
2013-03-30 12:04:00,37.8,28.9,29.81,NNE,22,8.1,8.1,70,0.00,CLR,,0.00,WeatherDisplay:10.37,2013-03-30 11:04:00,
2013-03-30 12:09:00,37.8,28.9,29.81,ENE,68,9.2,9.2,70,0.00,CLR,,0.00,WeatherDisplay:10.37,2013-03-30 11:09:00,
2013-03-30 12:14:00,37.6,28.3,29.81,NNE,22,9.2,9.2,69,0.00,CLR,,0.00,WeatherDisplay:10.37,2013-03-30 11:14:00,
2013-03-30 12:19:00,37.8,28.1,29.81,NE,45,9.2,9.2,68,0.00,CLR,,0.00,WeatherDisplay:10.37,2013-03-30 11:19:00,
2013-03-30 12:24:00,38.1,28.1,29.81,ENE,68,6.9,6.9,67,0.00,CLR,,0.00,WeatherDisplay:10.37,2013-03-30 11:24:00,
2013-03-30 12:29:00,38.3,28.3,29.81,NNE,22,5.8,5.8,67,0.00,CLR,,0.00,WeatherDisplay:10.37,2013-03-30 11:29:00,
2013-03-30 12:34:00,38.8,28.8,29.81,North,0,6.9,6.9,67,0.00,CLR,,0.00,WeatherDisplay:10.37,2013-03-30 11:34:00,
2013-03-30 12:39:00,39.0,28.2,29.81,NNE,22,5.8,5.8,65,0.00,CLR,,0.00,WeatherDisplay:10.37,2013-03-30 11:39:00,
2013-03-30 12:44:00,39.2,27.7,29.81,NNE,22,5.8,5.8,63,0.00,CLR,,0.00,WeatherDisplay:10.37,2013-03-30 11:44:00,
2013-03-30 12:49:00,39.0,27.5,29.81,NNE,22,9.0,9.0,63,0.00,CLR,,0.00,WeatherDisplay:10.37,2013-03-30 11:49:00,
2013-03-30 12:54:00,39.2,27.7,29.81,ENE,68,9.2,9.2,63,0.00,CLR,,0.00,WeatherDisplay:10.37,2013-03-30 11:54:00,
2013-03-30 12:59:00,39.6,29.1,29.81,NW,315,6.2,6.2,66,0.00,CLR,,0.00,WeatherDisplay:10.37,2013-03-30 11:59:00,
2013-03-30 13:04:00,39.0,29.3,29.81,NE,45,10.9,10.9,68,0.00,CLR,,0.00,WeatherDisplay:10.37,2013-03-30 12:04:00,
2013-03-30 13:09:00,38.8,29.5,29.82,North,0,11.5,11.5,69,0.00,CLR,,0.00,WeatherDisplay:10.37,2013-03-30 12:09:00,
2013-03-30 13:14:00,38.5,29.2,29.82,North,0,5.8,7.8,69,0.00,CLR,,0.00,WeatherDisplay:10.37,2013-03-30 12:14:00,
2013-03-30 13:19:00,38.5,30.2,29.82,NNE,22,8.1,8.1,72,0.00,CLR,,0.00,WeatherDisplay:10.37,2013-03-30 12:19:00,
2013-03-30 13:24:00,37.9,30.4,29.82,NE,45,8.1,8.1,74,0.00,CLR,,0.00,WeatherDisplay:10.37,2013-03-30 12:24:00,
2013-03-30 13:29:00,37.9,30.4,29.82,North,0,8.1,8.1,74,0.00,CLR,,0.00,WeatherDisplay:10.37,2013-03-30 12:29:00,
2013-03-30 13:34:00,38.1,30.6,29.82,ENE,68,6.9,6.9,74,0.00,CLR,,0.00,WeatherDisplay:10.37,2013-03-30 12:34:00,
2013-03-30 13:39:00,38.5,29.9,29.82,ENE,68,5.8,5.8,71,0.00,CLR,,0.00,WeatherDisplay:10.37,2013-03-30 12:39:00,
2013-03-30 13:44:00,38.8,30.2,29.82,North,0,6.9,6.9,71,0.00,CLR,,0.00,WeatherDisplay:10.37,2013-03-30 12:44:00,
2013-03-30 13:48:00,39.4,30.1,29.82,ENE,68,5.8,5.8,69,0.00,CLR,,0.00,WeatherDisplay:10.37,2013-03-30 12:48:00,
2013-03-30 13:53:00,39.4,29.0,29.82,North,0,9.2,9.2,66,0.00,CLR,,0.00,WeatherDisplay:10.37,2013-03-30 12:53:00,
2013-03-30 13:59:00,39.4,28.6,29.82,NE,45,9.2,9.2,65,0.00,CLR,,0.00,WeatherDisplay:10.37,2013-03-30 12:59:00,
2013-03-30 14:04:00,39.4,29.0,29.82,East,90,8.1,8.1,66,0.00,CLR,,0.00,WeatherDisplay:10.37,2013-03-30 13:04:00,
2013-03-30 14:08:00,39.2,29.5,29.82,NNE,22,8.1,8.1,68,0.00,CLR,,0.00,WeatherDisplay:10.37,2013-03-30 13:08:00,
2013-03-30 14:13:00,38.8,29.5,29.82,ENE,68,9.9,9.9,69,0.00,CLR,,0.00,WeatherDisplay:10.37,2013-03-30 13:13:00,
2013-03-30 14:18:00,37.8,30.2,29.83,NE,45,10.4,10.4,74,0.00,CLR,,0.00,WeatherDisplay:10.37,2013-03-30 13:18:00,
2013-03-30 14:23:00,37.0,30.2,29.83,NE,45,10.4,10.4,76,0.00,CLR,,0.00,WeatherDisplay:10.37,2013-03-30 13:23:00,
2013-03-30 14:28:00,36.9,30.3,29.83,NNE,22,5.8,5.8,77,0.00,CLR,,0.00,WeatherDisplay:10.37,2013-03-30 13:28:00,
2013-03-30 14:33:00,37.0,30.2,29.83,East,90,5.8,5.8,76,0.00,CLR,,0.00,WeatherDisplay:10.37,2013-03-30 13:33:00,
2013-03-30 14:38:00,37.0,29.5,29.83,NE,45,4.6,4.6,74,0.00,CLR,,0.00,WeatherDisplay:10.37,2013-03-30 13:38:00,
2013-03-30 14:43:00,37.2,29.7,29.83,ENE,68,3.5,3.5,74,0.00,CLR,,0.00,WeatherDisplay:10.37,2013-03-30 13:43:00,
2013-03-30 14:48:00,37.8,29.9,29.83,NNE,22,2.3,0.0,73,0.00,CLR,,0.00,WeatherDisplay:10.37,2013-03-30 13:48:00,
2013-03-30 14:53:00,37.9,30.1,29.83,ENE,68,2.4,2.4,73,0.00,CLR,,0.00,WeatherDisplay:10.37,2013-03-30 13:53:00,
2013-03-30 14:58:00,38.5,29.9,29.83,NE,45,4.6,4.6,71,0.00,CLR,,0.00,WeatherDisplay:10.37,2013-03-30 13:58:00,
2013-03-30 15:03:00,38.7,29.4,29.83,NE,45,4.6,4.6,69,0.00,CLR,,0.00,WeatherDisplay:10.37,2013-03-30 14:03:00,
2013-03-30 15:08:00,38.7,29.0,29.83,NE,45,5.8,5.8,68,0.00,CLR,,0.00,WeatherDisplay:10.37,2013-03-30 14:08:00,
2013-03-30 15:13:00,38.8,28.8,29.83,North,0,6.9,6.9,67,0.00,CLR,,0.00,WeatherDisplay:10.37,2013-03-30 14:13:00,
2013-03-30 15:18:00,39.4,29.3,29.83,NE,45,6.9,6.9,67,0.00,CLR,,0.00,WeatherDisplay:10.37,2013-03-30 14:18:00,
2013-03-30 15:23:00,39.6,29.5,29.83,NNE,22,5.8,5.8,67,0.00,CLR,,0.00,WeatherDisplay:10.37,2013-03-30 14:23:00,
2013-03-30 15:28:00,39.6,28.8,29.83,NNE,22,9.9,9.9,65,0.00,CLR,,0.00,WeatherDisplay:10.37,2013-03-30 14:28:00,
2013-03-30 15:33:00,39.2,28.4,29.83,North,0,10.4,10.4,65,0.00,CLR,,0.00,WeatherDisplay:10.37,2013-03-30 14:33:00,
2013-03-30 15:38:00,38.8,28.8,29.83,NE,45,8.1,8.1,67,0.00,CLR,,0.00,WeatherDisplay:10.37,2013-03-30 14:38:00,
2013-03-30 15:43:00,38.8,28.8,29.83,NE,45,9.2,9.2,67,0.00,CLR,,0.00,WeatherDisplay:10.37,2013-03-30 14:43:00,
2013-03-30 15:48:00,38.5,29.2,29.83,NNE,22,8.1,8.1,69,0.00,CLR,,0.00,WeatherDisplay:10.37,2013-03-30 14:48:00,
2013-03-30 15:53:00,38.5,28.5,29.83,NW,315,4.3,4.3,67,0.00,CLR,,0.00,WeatherDisplay:10.37,2013-03-30 14:53:00,
2013-03-30 15:58:00,38.7,28.6,29.83,North,0,11.5,11.5,67,0.00,CLR,,0.00,WeatherDisplay:10.37,2013-03-30 14:58:00,
2013-03-30 16:03:00,38.5,28.5,29.83,ENE,68,9.7,9.7,67,0.00,CLR,,0.00,WeatherDisplay:10.37,2013-03-30 15:03:00,
2013-03-30 16:08:00,38.5,28.5,29.83,NNE,22,10.2,10.2,67,0.00,CLR,,0.00,WeatherDisplay:10.37,2013-03-30 15:08:00,
2013-03-30 16:13:00,38.7,28.6,29.83,NNE,22,10.4,10.4,67,0.00,CLR,,0.00,WeatherDisplay:10.37,2013-03-30 15:13:00,
2013-03-30 16:18:00,38.7,29.0,29.83,NE,45,9.9,9.9,68,0.00,CLR,,0.00,WeatherDisplay:10.37,2013-03-30 15:18:00,
2013-03-30 16:23:00,38.8,29.2,29.83,NE,45,10.4,10.4,68,0.00,CLR,,0.00,WeatherDisplay:10.37,2013-03-30 15:23:00,
2013-03-30 16:28:00,38.7,29.0,29.83,North,0,10.7,10.7,68,0.00,CLR,,0.00,WeatherDisplay:10.37,2013-03-30 15:28:00,
2013-03-30 16:33:00,38.5,28.8,29.83,NE,45,10.4,10.4,68,0.00,CLR,,0.00,WeatherDisplay:10.37,2013-03-30 15:33:00,
2013-03-30 16:38:00,38.5,28.5,29.84,NNE,22,11.5,11.5,67,0.00,CLR,,0.00,WeatherDisplay:10.37,2013-03-30 15:38:00,
2013-03-30 16:43:00,38.3,29.0,29.83,NE,45,10.2,10.2,69,0.00,CLR,,0.00,WeatherDisplay:10.37,2013-03-30 15:43:00,
2013-03-30 16:48:00,37.9,28.7,29.84,North,0,10.4,10.4,69,0.00,CLR,,0.00,WeatherDisplay:10.37,2013-03-30 15:48:00,
2013-03-30 16:53:00,37.8,29.2,29.84,NE,45,10.5,10.5,71,0.00,CLR,,0.00,WeatherDisplay:10.37,2013-03-30 15:53:00,
2013-03-30 16:58:00,37.8,29.5,29.84,NNE,22,10.4,10.4,72,0.00,CLR,,0.00,WeatherDisplay:10.37,2013-03-30 15:58:00,
2013-03-30 17:03:00,37.8,29.2,29.84,NE,45,8.1,8.1,71,0.00,CLR,,0.00,WeatherDisplay:10.37,2013-03-30 16:03:00,
2013-03-30 17:08:00,37.8,29.2,29.84,North,0,10.4,10.4,71,0.00,CLR,,0.00,WeatherDisplay:10.37,2013-03-30 16:08:00,
2013-03-30 17:13:00,37.9,29.7,29.84,North,0,8.1,8.1,72,0.00,CLR,,0.00,WeatherDisplay:10.37,2013-03-30 16:13:00,
2013-03-30 17:18:00,38.3,29.7,29.84,NNE,22,7.4,7.4,71,0.00,CLR,,0.00,WeatherDisplay:10.37,2013-03-30 16:18:00,
2013-03-30 17:23:00,38.1,29.5,29.84,East,90,12.7,12.7,71,0.00,CLR,,0.00,WeatherDisplay:10.37,2013-03-30 16:23:00,
2013-03-30 17:28:00,37.9,30.1,29.84,ENE,68,9.2,9.2,73,0.00,CLR,,0.00,WeatherDisplay:10.37,2013-03-30 16:28:00,
2013-03-30 17:33:00,37.6,30.4,29.84,North,0,9.2,9.2,75,0.00,CLR,,0.00,WeatherDisplay:10.37,2013-03-30 16:33:00,
2013-03-30 17:38:00,37.6,30.0,29.84,NNE,22,6.9,6.9,74,0.00,CLR,,0.00,WeatherDisplay:10.37,2013-03-30 16:38:00,
2013-03-30 17:43:00,37.6,29.7,29.85,ENE,68,6.9,6.9,73,0.00,CLR,,0.00,WeatherDisplay:10.37,2013-03-30 16:43:00,
2013-03-30 17:48:00,37.6,29.0,29.84,NE,45,9.2,9.2,71,0.00,CLR,,0.00,WeatherDisplay:10.37,2013-03-30 16:48:00,
2013-03-30 17:53:00,37.4,28.9,29.84,North,0,9.2,9.2,71,0.00,CLR,,0.00,WeatherDisplay:10.37,2013-03-30 16:53:00,
2013-03-30 17:58:00,37.4,28.9,29.85,NNE,22,8.1,8.1,71,0.00,CLR,,0.00,WeatherDisplay:10.37,2013-03-30 16:58:00,
2013-03-30 18:03:00,37.6,29.0,29.85,NNW,338,6.9,6.9,71,0.00,CLR,,0.00,WeatherDisplay:10.37,2013-03-30 17:03:00,
2013-03-30 18:08:00,37.6,29.4,29.85,NE,45,5.9,5.9,72,0.00,CLR,,0.00,WeatherDisplay:10.37,2013-03-30 17:08:00,
2013-03-30 18:13:00,37.6,29.4,29.85,NE,45,6.9,6.9,72,0.00,CLR,,0.00,WeatherDisplay:10.37,2013-03-30 17:13:00,
2013-03-30 18:18:00,37.4,28.9,29.85,NNE,22,8.5,8.5,71,0.00,CLR,,0.00,WeatherDisplay:10.37,2013-03-30 17:18:00,
2013-03-30 18:23:00,37.4,28.9,29.85,NE,45,8.1,8.1,71,0.00,CLR,,0.00,WeatherDisplay:10.37,2013-03-30 17:23:00,
2013-03-30 18:28:00,37.8,29.2,29.86,NNE,22,7.6,7.6,71,0.00,CLR,,0.00,WeatherDisplay:10.37,2013-03-30 17:28:00,
2013-03-30 18:33:00,37.8,29.2,29.85,NE,45,8.1,8.1,71,0.00,CLR,,0.00,WeatherDisplay:10.37,2013-03-30 17:33:00,
2013-03-30 18:38:00,37.4,28.9,29.86,ENE,68,11.5,11.5,71,0.00,CLR,,0.00,WeatherDisplay:10.37,2013-03-30 17:38:00,
2013-03-30 18:43:00,37.2,28.7,29.86,North,0,11.5,11.5,71,0.00,CLR,,0.00,WeatherDisplay:10.37,2013-03-30 17:43:00,
2013-03-30 18:48:00,37.0,28.8,29.86,ENE,68,9.2,9.2,72,0.00,CLR,,0.00,WeatherDisplay:10.37,2013-03-30 17:48:00,
2013-03-30 18:53:00,36.9,29.0,29.86,NNE,22,9.2,9.2,73,0.00,CLR,,0.00,WeatherDisplay:10.37,2013-03-30 17:53:00,
2013-03-30 18:58:00,36.7,28.8,29.86,NNE,22,9.2,9.2,73,0.00,CLR,,0.00,WeatherDisplay:10.37,2013-03-30 17:58:00,
2013-03-30 19:03:00,36.5,29.0,29.86,NNE,22,9.2,9.2,74,0.00,CLR,,0.00,WeatherDisplay:10.37,2013-03-30 18:03:00,
2013-03-30 19:08:00,36.5,29.3,29.86,NNE,22,9.2,9.2,75,0.00,CLR,,0.00,WeatherDisplay:10.37,2013-03-30 18:08:00,
2013-03-30 19:13:00,36.3,28.8,29.86,North,0,10.4,10.4,74,0.00,CLR,,0.00,WeatherDisplay:10.37,2013-03-30 18:13:00,
2013-03-30 19:18:00,36.1,29.0,29.87,NNE,22,10.4,10.4,75,0.00,CLR,,0.00,WeatherDisplay:10.37,2013-03-30 18:18:00,
2013-03-30 19:23:00,36.0,29.1,29.86,North,0,10.4,10.4,76,0.00,CLR,,0.00,WeatherDisplay:10.37,2013-03-30 18:23:00,
2013-03-30 19:28:00,36.0,29.1,29.87,NNE,22,10.4,10.4,76,0.00,CLR,,0.00,WeatherDisplay:10.37,2013-03-30 18:28:00,
2013-03-30 19:33:00,35.8,29.0,29.87,North,0,10.4,10.4,76,0.00,CLR,,0.00,WeatherDisplay:10.37,2013-03-30 18:33:00,
2013-03-30 19:38:00,35.6,29.1,29.87,NNE,22,6.9,6.9,77,0.00,CLR,,0.00,WeatherDisplay:10.37,2013-03-30 18:38:00,
2013-03-30 19:43:00,35.4,28.9,29.88,NNE,22,9.2,9.2,77,0.00,CLR,,0.00,WeatherDisplay:10.37,2013-03-30 18:43:00,
2013-03-30 19:48:00,35.1,28.9,29.87,NNE,22,9.9,9.9,78,0.00,CLR,,0.00,WeatherDisplay:10.37,2013-03-30 18:48:00,
2013-03-30 19:53:00,34.9,29.0,29.87,North,0,10.4,10.4,79,0.00,CLR,,0.00,WeatherDisplay:10.37,2013-03-30 18:53:00,
2013-03-30 19:58:00,35.1,29.5,29.88,NNE,22,8.1,8.1,80,0.00,CLR,,0.00,WeatherDisplay:10.37,2013-03-30 18:58:00,
2013-03-30 20:03:00,35.2,29.7,29.88,NE,45,9.2,9.2,80,0.00,CLR,,0.00,WeatherDisplay:10.37,2013-03-30 19:03:00,
2013-03-30 20:08:00,35.2,29.7,29.88,North,0,6.9,6.9,80,0.00,CLR,,0.00,WeatherDisplay:10.37,2013-03-30 19:08:00,
2013-03-30 20:13:00,35.2,29.7,29.88,NNE,22,6.9,6.9,80,0.00,CLR,,0.00,WeatherDisplay:10.37,2013-03-30 19:13:00,
2013-03-30 20:18:00,35.1,29.2,29.88,NNE,22,6.9,6.9,79,0.00,CLR,,0.00,WeatherDisplay:10.37,2013-03-30 19:18:00,
2013-03-30 20:23:00,34.9,29.3,29.88,NE,45,6.9,6.9,80,0.00,CLR,,0.00,WeatherDisplay:10.37,2013-03-30 19:23:00,
2013-03-30 20:28:00,34.9,29.3,29.89,NNE,22,5.8,5.8,80,0.00,CLR,,0.00,WeatherDisplay:10.37,2013-03-30 19:28:00,
2013-03-30 20:33:00,34.7,29.2,29.88,NE,45,5.8,5.8,80,0.00,CLR,,0.00,WeatherDisplay:10.37,2013-03-30 19:33:00,
2013-03-30 20:38:00,34.5,28.7,29.88,NNE,22,5.8,5.8,79,0.00,CLR,,0.00,WeatherDisplay:10.37,2013-03-30 19:38:00,
2013-03-30 20:43:00,34.5,28.4,29.89,North,0,4.6,4.6,78,0.00,CLR,,0.00,WeatherDisplay:10.37,2013-03-30 19:43:00,
2013-03-30 20:48:00,34.5,28.4,29.89,NE,45,3.5,3.5,78,0.00,CLR,,0.00,WeatherDisplay:10.37,2013-03-30 19:48:00,
2013-03-30 20:53:00,34.3,28.2,29.89,NE,45,2.3,2.3,78,0.00,CLR,,0.00,WeatherDisplay:10.37,2013-03-30 19:53:00,
2013-03-30 20:58:00,34.2,28.3,29.89,NNE,22,3.5,3.5,79,0.00,CLR,,0.00,WeatherDisplay:10.37,2013-03-30 19:58:00,
2013-03-30 21:03:00,34.2,28.6,29.90,NE,45,3.5,3.5,80,0.00,CLR,,0.00,WeatherDisplay:10.37,2013-03-30 20:03:00,
2013-03-30 21:08:00,34.0,28.5,29.90,NE,45,3.5,3.5,80,0.00,CLR,,0.00,WeatherDisplay:10.37,2013-03-30 20:08:00,
2013-03-30 21:13:00,33.8,28.3,29.90,NE,45,3.5,3.5,80,0.00,CLR,,0.00,WeatherDisplay:10.37,2013-03-30 20:13:00,
2013-03-30 21:18:00,33.6,28.4,29.90,ENE,68,2.3,2.3,81,0.00,CLR,,0.00,WeatherDisplay:10.37,2013-03-30 20:18:00,
2013-03-30 21:23:00,33.6,28.7,29.90,NE,45,4.7,4.7,82,0.00,CLR,,0.00,WeatherDisplay:10.37,2013-03-30 20:23:00,
2013-03-30 21:28:00,33.6,28.4,29.90,ENE,68,4.6,4.6,81,0.00,CLR,,0.00,WeatherDisplay:10.37,2013-03-30 20:28:00,
2013-03-30 21:33:00,33.6,28.4,29.90,ENE,68,6.9,6.9,81,0.00,CLR,,0.00,WeatherDisplay:10.37,2013-03-30 20:33:00,
2013-03-30 21:38:00,33.4,28.2,29.90,North,0,4.6,4.6,81,0.00,CLR,,0.00,WeatherDisplay:10.37,2013-03-30 20:38:00,
2013-03-30 21:43:00,33.4,28.2,29.90,NNE,22,5.4,5.4,81,0.00,CLR,,0.00,WeatherDisplay:10.37,2013-03-30 20:43:00,
2013-03-30 21:48:00,33.3,27.8,29.91,NNE,22,5.8,5.8,80,0.00,CLR,,0.00,WeatherDisplay:10.37,2013-03-30 20:48:00,
2013-03-30 21:53:00,33.3,27.8,29.91,North,0,4.3,4.3,80,0.00,CLR,,0.00,WeatherDisplay:10.37,2013-03-30 20:53:00,
2013-03-30 21:58:00,33.1,27.6,29.91,NNE,22,4.6,4.6,80,0.00,CLR,,0.00,WeatherDisplay:10.37,2013-03-30 20:58:00,
2013-03-30 22:03:00,33.1,27.6,29.91,NNE,22,3.5,3.5,80,0.00,CLR,,0.00,WeatherDisplay:10.37,2013-03-30 21:03:00,
2013-03-30 22:08:00,32.9,27.7,29.91,NNE,22,4.6,4.6,81,0.00,CLR,,0.00,WeatherDisplay:10.37,2013-03-30 21:08:00,
2013-03-30 22:13:00,32.7,27.5,29.91,NNE,22,4.3,4.3,81,0.00,CLR,,0.00,WeatherDisplay:10.37,2013-03-30 21:13:00,
2013-03-30 22:18:00,32.7,27.5,29.91,NE,45,4.6,4.6,81,0.00,CLR,,0.00,WeatherDisplay:10.37,2013-03-30 21:18:00,
2013-03-30 22:23:00,32.7,27.5,29.91,NE,45,3.5,3.5,81,0.00,CLR,,0.00,WeatherDisplay:10.37,2013-03-30 21:23:00,
2013-03-30 22:28:00,32.5,27.4,29.91,North,0,3.5,3.5,81,0.00,CLR,,0.00,WeatherDisplay:10.37,2013-03-30 21:28:00,
2013-03-30 22:33:00,32.5,27.4,29.91,NE,45,4.6,4.6,81,0.00,CLR,,0.00,WeatherDisplay:10.37,2013-03-30 21:33:00,
2013-03-30 22:38:00,32.4,27.5,29.91,NNE,22,3.5,4.7,82,0.00,CLR,,0.00,WeatherDisplay:10.37,2013-03-30 21:38:00,
2013-03-30 22:43:00,32.4,27.5,29.91,NNE,22,4.6,4.6,82,0.00,CLR,,0.00,WeatherDisplay:10.37,2013-03-30 21:43:00,
2013-03-30 22:48:00,32.4,27.2,29.91,NE,45,4.6,4.6,81,0.00,CLR,,0.00,WeatherDisplay:10.37,2013-03-30 21:48:00,
2013-03-30 22:53:00,32.4,27.2,29.91,NNE,22,3.5,3.5,81,0.00,CLR,,0.00,WeatherDisplay:10.37,2013-03-30 21:53:00,
2013-03-30 22:58:00,32.2,27.0,29.91,NE,45,3.5,3.5,81,0.00,CLR,,0.00,WeatherDisplay:10.37,2013-03-30 21:58:00,
2013-03-30 23:03:00,32.2,27.0,29.91,NNE,22,3.5,3.5,81,0.00,CLR,,0.00,WeatherDisplay:10.37,2013-03-30 22:03:00,
2013-03-30 23:08:00,32.0,26.8,29.91,NE,45,2.3,2.3,81,0.00,CLR,,0.00,WeatherDisplay:10.37,2013-03-30 22:08:00,
2013-03-30 23:13:00,32.0,27.1,29.91,NNE,22,4.6,4.6,82,0.00,CLR,,0.00,WeatherDisplay:10.37,2013-03-30 22:13:00,
2013-03-30 23:18:00,32.0,27.1,29.91,NNE,22,3.1,3.1,82,0.00,CLR,,0.00,WeatherDisplay:10.37,2013-03-30 22:18:00,
2013-03-30 23:23:00,32.0,27.1,29.91,NE,45,4.0,4.0,82,0.00,CLR,,0.00,WeatherDisplay:10.37,2013-03-30 22:23:00,
2013-03-30 23:28:00,32.0,27.4,29.91,ENE,68,4.6,4.6,83,0.00,CLR,,0.00,WeatherDisplay:10.37,2013-03-30 22:28:00,
2013-03-30 23:33:00,32.2,27.6,29.91,NNE,22,4.6,4.6,83,0.00,CLR,,0.00,WeatherDisplay:10.37,2013-03-30 22:33:00,
2013-03-30 23:38:00,32.4,27.8,29.92,NE,45,4.6,4.6,83,0.00,CLR,,0.00,WeatherDisplay:10.37,2013-03-30 22:38:00,
2013-03-30 23:43:00,32.4,27.8,29.92,NE,45,4.6,4.6,83,0.00,CLR,,0.00,WeatherDisplay:10.37,2013-03-30 22:43:00,
2013-03-30 23:48:00,32.5,28.0,29.92,NNE,22,4.7,4.7,83,0.00,CLR,,0.00,WeatherDisplay:10.37,2013-03-30 22:48:00,
2013-03-30 23:53:00,32.5,28.0,29.92,NE,45,4.6,4.6,83,0.00,CLR,,0.00,WeatherDisplay:10.37,2013-03-30 22:53:00,
2013-03-30 23:58:00,32.5,28.0,29.92,NE,45,6.9,6.9,83,0.00,CLR,,0.00,WeatherDisplay:10.37,2013-03-30 22:58:00,